Time;durP1;ratioP1;P1;durP2;ratioP2;P2;SDS_P1;SDS_P2;PMS_P1;PMS_P2;Temp;Humidity;BMP_temperature;BMP_pressure;BME280_temperature;BME280_humidity;BME280_pressure;Samples;Min_cycle;Max_cycle;Signal;HPM_P1;HPM_P2
2023/06/14 00:01:45;;;;;;;5.72;3.22;;;18.30;99.90;;;;;;5056199;28;20039;-77
2023/06/14 00:04:11;;;;;;;4.88;3.05;;;18.20;99.90;;;;;;5051450;28;20102;-77
2023/06/14 00:06:37;;;;;;;6.20;3.47;;;18.30;99.90;;;;;;5050621;28;20433;-77
2023/06/14 00:09:04;;;;;;;5.40;3.38;;;18.30;99.90;;;;;;5049897;28;20060;-77
2023/06/14 00:11:31;;;;;;;5.63;3.65;;;18.20;99.90;;;;;;5058146;28;20093;-77
2023/06/14 00:13:57;;;;;;;4.90;3.20;;;18.30;99.90;;;;;;5051961;28;20430;-77
2023/06/14 00:16:23;;;;;;;5.53;3.08;;;18.30;99.90;;;;;;5053140;28;20123;-77
2023/06/14 00:18:48;;;;;;;7.68;3.53;;;18.20;99.90;;;;;;5062277;28;20432;-77
2023/06/14 00:21:14;;;;;;;5.60;3.10;;;18.10;99.90;;;;;;5050794;28;20128;-77
2023/06/14 00:23:40;;;;;;;6.78;3.55;;;18.10;99.90;;;;;;5052057;28;20043;-77
2023/06/14 00:26:06;;;;;;;5.35;3.47;;;18.10;99.90;;;;;;5050489;28;20027;-77
2023/06/14 00:28:31;;;;;;;7.75;3.67;;;18.20;99.90;;;;;;5056146;28;20356;-77
2023/06/14 00:30:57;;;;;;;6.55;3.33;;;18.20;99.90;;;;;;5049452;28;20028;-77
2023/06/14 00:33:23;;;;;;;5.13;3.17;;;18.20;99.90;;;;;;5048467;28;20031;-77
2023/06/14 00:35:48;;;;;;;5.45;3.40;;;18.20;99.90;;;;;;5051456;28;20468;-77
2023/06/14 00:38:14;;;;;;;4.53;3.00;;;18.10;99.90;;;;;;5057563;28;20732;-77
2023/06/14 00:40:39;;;;;;;5.53;3.20;;;18.00;99.90;;;;;;5053727;28;20508;-77
2023/06/14 00:43:05;;;;;;;7.30;3.22;;;18.10;99.90;;;;;;5052179;28;20021;-77
2023/06/14 00:45:35;;;;;;;6.85;3.28;;;18.10;99.90;;;;;;5052722;28;20108;-77
2023/06/14 00:48:02;;;;;;;4.95;3.10;;;18.10;99.90;;;;;;5050971;28;20112;-77
2023/06/14 00:50:29;;;;;;;5.80;3.42;;;17.90;99.90;;;;;;5052878;28;20025;-77
2023/06/14 00:52:56;;;;;;;6.93;3.60;;;17.80;99.90;;;;;;5050432;28;20115;-77
2023/06/14 00:55:21;;;;;;;8.77;4.35;;;17.80;99.90;;;;;;5049662;28;20029;-77
2023/06/14 00:57:49;;;;;;;8.25;3.65;;;17.90;99.90;;;;;;5049522;28;20037;-78
2023/06/14 01:00:15;;;;;;;4.63;2.85;;;17.90;99.90;;;;;;5050207;28;20052;-77
2023/06/14 01:02:41;;;;;;;7.53;3.30;;;17.80;99.90;;;;;;5050434;28;20040;-77
2023/06/14 01:05:08;;;;;;;5.78;3.30;;;17.70;99.90;;;;;;5050617;28;20029;-77
2023/06/14 01:07:36;;;;;;;4.78;3.20;;;17.70;99.90;;;;;;5050399;28;20090;-77
2023/06/14 01:10:40;;;;;;;7.40;3.70;;;17.70;99.90;;;;;;5051150;28;20124;-77
2023/06/14 01:13:27;;;;;;;6.38;3.33;;;17.80;99.90;;;;;;5048790;28;20040;-77
2023/06/14 01:15:54;;;;;;;7.07;3.40;;;17.80;99.90;;;;;;5051773;28;20035;-77
2023/06/14 01:18:20;;;;;;;5.20;3.03;;;17.80;99.90;;;;;;5054332;28;20025;-77
2023/06/14 01:20:49;;;;;;;5.32;3.22;;;17.60;99.90;;;;;;5055431;28;20037;-77
2023/06/14 01:23:18;;;;;;;6.50;3.33;;;17.60;99.90;;;;;;5048127;28;20025;-77
2023/06/14 01:25:44;;;;;;;5.93;4.28;;;17.50;99.90;;;;;;5055269;28;20040;-77
2023/06/14 01:28:12;;;;;;;5.50;3.38;;;17.60;99.90;;;;;;5049814;28;20493;-77
2023/06/14 01:30:44;;;;;;;7.43;4.25;;;17.50;99.90;;;;;;5051876;28;20028;-77
2023/06/14 01:33:13;;;;;;;8.18;3.63;;;17.50;99.90;;;;;;5048335;28;20040;-77
2023/06/14 01:35:40;;;;;;;6.10;2.90;;;17.40;99.90;;;;;;5053771;28;20031;-77
2023/06/14 01:38:07;;;;;;;4.93;3.10;;;17.20;99.90;;;;;;5049161;28;20028;-77
2023/06/14 01:40:34;;;;;;;6.07;3.60;;;17.00;99.90;;;;;;5056102;28;20549;-77
2023/06/14 01:43:01;;;;;;;5.53;3.67;;;17.00;99.90;;;;;;5050426;28;20060;-77
2023/06/14 01:45:28;;;;;;;5.43;3.08;;;17.10;99.90;;;;;;5056836;28;20052;-77
2023/06/14 01:47:54;;;;;;;5.50;3.58;;;17.10;99.90;;;;;;5054654;28;20028;-77
2023/06/14 01:50:20;;;;;;;15.18;3.15;;;17.10;99.90;;;;;;5059296;28;20036;-77
2023/06/14 01:52:46;;;;;;;6.63;3.47;;;17.00;99.90;;;;;;5058490;28;20048;-77
2023/06/14 01:55:12;;;;;;;6.78;3.42;;;17.00;99.90;;;;;;5059207;28;20048;-77
2023/06/14 01:57:37;;;;;;;4.88;3.15;;;17.10;99.90;;;;;;5058776;28;20072;-77
2023/06/14 02:00:12;;;;;;;5.90;3.40;;;17.20;99.90;;;;;;5054266;28;20414;-77
2023/06/14 02:02:38;;;;;;;7.13;3.45;;;17.30;99.90;;;;;;5055886;28;20056;-77
2023/06/14 02:05:04;;;;;;;6.03;3.05;;;17.20;99.90;;;;;;5053390;28;20079;-77
2023/06/14 02:07:29;;;;;;;5.15;3.30;;;17.20;99.90;;;;;;5056262;28;20091;-77
2023/06/14 02:09:55;;;;;;;5.07;3.15;;;17.10;99.90;;;;;;5053808;28;20039;-77
2023/06/14 02:12:21;;;;;;;4.97;2.70;;;17.30;99.90;;;;;;5052978;28;20023;-77
2023/06/14 02:14:46;;;;;;;6.35;3.38;;;17.20;99.90;;;;;;5055404;28;20412;-77
2023/06/14 02:17:12;;;;;;;6.38;3.92;;;17.30;99.90;;;;;;5060841;28;20087;-77
2023/06/14 02:19:38;;;;;;;5.05;2.75;;;17.20;99.90;;;;;;5060921;28;20040;-77
2023/06/14 02:22:04;;;;;;;7.60;3.75;;;17.30;99.90;;;;;;5051803;28;20059;-77
2023/06/14 02:24:30;;;;;;;7.75;3.17;;;17.30;99.90;;;;;;5055229;28;20021;-77
2023/06/14 02:26:55;;;;;;;6.53;3.25;;;17.20;99.90;;;;;;5052731;28;20025;-77
2023/06/14 02:29:21;;;;;;;4.90;3.33;;;16.90;99.90;;;;;;5053588;28;20036;-77
2023/06/14 02:31:48;;;;;;;4.05;2.90;;;16.80;99.90;;;;;;5052524;28;20041;-77
2023/06/14 02:34:16;;;;;;;6.00;3.15;;;16.80;99.90;;;;;;5059433;28;20021;-77
2023/06/14 02:36:42;;;;;;;5.35;3.33;;;16.90;99.90;;;;;;5053091;28;20029;-76
2023/06/14 02:39:11;;;;;;;5.32;3.20;;;16.80;99.90;;;;;;5064430;28;20016;-76
2023/06/14 02:41:38;;;;;;;12.18;4.47;;;16.80;99.90;;;;;;5052489;28;20495;-77
2023/06/14 02:44:04;;;;;;;6.47;3.38;;;16.90;99.90;;;;;;5051594;28;20114;-76
2023/06/14 02:46:29;;;;;;;5.05;3.53;;;16.70;99.90;;;;;;5052248;28;20088;-76
2023/06/14 02:48:55;;;;;;;5.40;3.40;;;16.60;99.90;;;;;;5051897;28;20028;-76
2023/06/14 02:51:20;;;;;;;5.65;3.15;;;16.50;99.90;;;;;;5058641;28;20107;-76
2023/06/14 02:53:46;;;;;;;6.47;3.78;;;16.60;99.90;;;;;;5053535;28;20032;-76
2023/06/14 02:56:12;;;;;;;5.63;3.50;;;16.60;99.90;;;;;;5053763;28;20074;-76
2023/06/14 02:58:39;;;;;;;6.00;3.10;;;16.50;99.90;;;;;;5051173;28;20507;-76
2023/06/14 03:01:07;;;;;;;5.22;3.83;;;16.50;99.90;;;;;;5055958;28;20044;-76
2023/06/14 03:03:33;;;;;;;5.35;3.67;;;16.70;99.90;;;;;;5057318;28;20036;-76
2023/06/14 03:06:04;;;;;;;5.28;3.30;;;16.80;99.90;;;;;;5046068;28;20068;-76
2023/06/14 03:08:31;;;;;;;7.60;3.60;;;16.80;99.90;;;;;;5045509;28;20093;-76
2023/06/14 03:10:57;;;;;;;5.60;3.33;;;16.70;99.90;;;;;;5053659;28;20090;-76
2023/06/14 03:13:23;;;;;;;6.00;3.10;;;16.70;99.90;;;;;;5047032;28;20406;-76
2023/06/14 03:15:52;;;;;;;5.75;3.13;;;16.60;99.90;;;;;;5046607;28;20072;-76
2023/06/14 03:18:19;;;;;;;5.85;3.38;;;16.40;99.90;;;;;;5045624;28;20056;-76
2023/06/14 03:20:45;;;;;;;6.50;3.45;;;16.30;99.90;;;;;;5050270;28;20145;-75
2023/06/14 03:23:12;;;;;;;8.18;4.18;;;16.20;99.90;;;;;;5044216;28;20033;-76
2023/06/14 03:25:38;;;;;;;5.38;3.88;;;16.30;99.90;;;;;;5047597;28;20104;-76
2023/06/14 03:28:06;;;;;;;6.63;3.80;;;16.40;99.90;;;;;;5042722;28;20090;-76
2023/06/14 03:30:32;;;;;;;6.18;3.17;;;16.20;99.90;;;;;;5044146;28;20379;-76
2023/06/14 03:33:00;;;;;;;5.60;3.72;;;16.20;99.90;;;;;;5045767;28;20025;-76
2023/06/14 03:35:27;;;;;;;6.45;3.60;;;16.20;99.90;;;;;;5046449;28;20383;-76
2023/06/14 03:37:52;;;;;;;7.72;3.60;;;16.20;99.90;;;;;;5046281;28;20041;-75
2023/06/14 03:40:19;;;;;;;5.80;3.30;;;16.10;99.90;;;;;;5054478;28;20033;-74
2023/06/14 03:42:45;;;;;;;5.90;3.15;;;16.30;99.90;;;;;;5045648;28;20025;-75
2023/06/14 03:45:11;;;;;;;5.95;3.67;;;16.40;99.90;;;;;;5045723;28;20032;-75
2023/06/14 03:47:37;;;;;;;5.65;3.70;;;16.40;99.90;;;;;;5051305;28;20075;-75
2023/06/14 03:50:03;;;;;;;5.95;4.20;;;16.30;99.90;;;;;;5051129;28;20199;-74
2023/06/14 03:52:29;;;;;;;5.03;3.25;;;16.40;99.90;;;;;;5052863;28;20138;-75
2023/06/14 03:54:55;;;;;;;7.47;3.97;;;16.40;99.90;;;;;;5047081;28;21192;-75
2023/06/14 03:57:21;;;;;;;6.28;3.40;;;16.10;99.90;;;;;;5048619;28;20037;-75
2023/06/14 03:59:47;;;;;;;6.40;3.45;;;16.10;99.90;;;;;;5046905;28;20025;-74
2023/06/14 04:02:15;;;;;;;5.55;3.75;;;16.20;99.90;;;;;;5054693;28;20036;-75
2023/06/14 04:04:43;;;;;;;7.47;3.53;;;16.30;99.90;;;;;;5045970;28;20092;-74
2023/06/14 04:07:11;;;;;;;7.90;3.88;;;16.30;99.90;;;;;;5042736;28;20063;-74
2023/06/14 04:09:37;;;;;;;5.97;3.85;;;16.40;99.90;;;;;;5050379;28;20485;-75
2023/06/14 04:12:03;;;;;;;6.32;3.78;;;16.50;99.90;;;;;;5048009;28;20116;-74
2023/06/14 04:14:30;;;;;;;6.22;3.70;;;16.50;99.90;;;;;;5047172;28;20025;-74
2023/06/14 04:16:56;;;;;;;10.43;4.18;;;16.50;99.90;;;;;;5042511;28;20041;-75
2023/06/14 04:19:21;;;;;;;5.25;3.45;;;16.60;99.90;;;;;;5046335;28;20040;-75
2023/06/14 04:21:47;;;;;;;7.63;3.42;;;16.70;99.90;;;;;;5041759;28;20470;-75
2023/06/14 04:24:13;;;;;;;7.65;4.13;;;16.80;99.90;;;;;;5049006;28;20028;-75
2023/06/14 04:26:41;;;;;;;5.93;3.53;;;16.80;99.90;;;;;;5050440;28;20743;-75
2023/06/14 04:29:06;;;;;;;8.73;4.10;;;16.80;99.90;;;;;;5050527;28;20060;-74
2023/06/14 04:31:37;;;;;;;5.75;3.70;;;16.90;99.90;;;;;;5043875;28;20070;-75
2023/06/14 04:34:05;;;;;;;4.80;3.33;;;16.90;99.90;;;;;;5045461;28;20058;-75
2023/06/14 04:36:36;;;;;;;8.18;4.10;;;17.00;99.90;;;;;;5041344;28;20137;-75
2023/06/14 04:39:03;;;;;;;6.43;3.95;;;17.10;99.90;;;;;;5045146;28;20370;-75
2023/06/14 04:41:32;;;;;;;7.65;4.60;;;17.20;99.90;;;;;;5046697;28;20045;-74
2023/06/14 04:44:01;;;;;;;7.03;4.05;;;17.30;99.90;;;;;;5041993;28;21043;-75
2023/06/14 04:46:28;;;;;;;6.05;3.83;;;17.20;99.90;;;;;;5049468;28;20115;-75
2023/06/14 04:48:54;;;;;;;5.43;3.30;;;17.30;99.90;;;;;;5049909;28;20061;-75
2023/06/14 04:51:29;;;;;;;6.40;3.65;;;17.30;99.90;;;;;;5044205;28;20087;-75
2023/06/14 04:53:57;;;;;;;6.35;4.53;;;17.40;99.90;;;;;;5047945;28;20463;-75
2023/06/14 04:56:26;;;;;;;7.07;4.15;;;17.40;99.90;;;;;;5043692;28;20075;-75
2023/06/14 04:58:53;;;;;;;6.38;4.30;;;17.50;99.90;;;;;;5042391;28;20057;-74
2023/06/14 05:01:20;;;;;;;7.22;5.40;;;17.50;99.90;;;;;;5050700;28;20040;-75
2023/06/14 05:03:48;;;;;;;5.75;3.95;;;17.50;99.90;;;;;;5043882;28;20029;-75
2023/06/14 05:06:14;;;;;;;6.22;3.80;;;17.60;99.90;;;;;;5050945;28;20608;-74
2023/06/14 05:08:40;;;;;;;9.43;3.72;;;17.70;99.90;;;;;;5052964;28;20029;-75
2023/06/14 05:11:05;;;;;;;8.13;4.55;;;17.70;99.90;;;;;;5046774;28;20475;-75
2023/06/14 05:13:32;;;;;;;5.95;3.80;;;17.80;99.90;;;;;;5040597;28;20072;-74
2023/06/14 05:15:59;;;;;;;7.47;4.35;;;17.70;99.90;;;;;;5048665;28;20067;-74
2023/06/14 05:18:25;;;;;;;6.40;4.35;;;17.70;99.90;;;;;;5043152;28;20033;-74
2023/06/14 05:20:51;;;;;;;6.78;4.22;;;17.80;99.90;;;;;;5044225;28;20399;-75
2023/06/14 05:23:16;;;;;;;6.57;4.05;;;17.90;99.90;;;;;;5044824;28;20029;-75
2023/06/14 05:25:43;;;;;;;6.13;4.53;;;17.80;99.90;;;;;;5042517;28;20040;-76
2023/06/14 05:28:09;;;;;;;5.93;3.88;;;17.90;99.90;;;;;;5050253;28;20036;-75
2023/06/14 05:30:35;;;;;;;6.38;4.03;;;17.90;99.90;;;;;;5047378;28;20039;-76
2023/06/14 05:33:01;;;;;;;5.60;3.63;;;18.00;99.90;;;;;;5045387;28;20130;-75
2023/06/14 05:35:26;;;;;;;5.65;3.70;;;17.90;99.90;;;;;;5044370;28;20045;-75
2023/06/14 05:37:53;;;;;;;6.85;3.33;;;18.00;99.90;;;;;;5048924;28;20025;-75
2023/06/14 05:40:19;;;;;;;7.63;4.18;;;18.00;99.90;;;;;;5046889;28;20025;-75
2023/06/14 05:42:45;;;;;;;6.97;3.78;;;18.00;99.90;;;;;;5054209;28;20708;-75
2023/06/14 05:45:11;;;;;;;6.97;3.95;;;18.20;99.90;;;;;;5049050;28;20451;-76
2023/06/14 05:47:37;;;;;;;5.57;3.90;;;18.10;99.90;;;;;;5049195;28;20032;-75
2023/06/14 05:50:03;;;;;;;6.60;3.42;;;18.20;99.90;;;;;;5048910;28;20029;-76
2023/06/14 05:52:29;;;;;;;5.88;3.38;;;18.20;99.90;;;;;;5050713;28;20174;-76
2023/06/14 05:54:55;;;;;;;7.97;4.20;;;18.20;99.90;;;;;;5054652;28;20505;-75
2023/06/14 05:57:20;;;;;;;8.90;4.47;;;18.10;99.90;;;;;;5051858;28;20198;-75
2023/06/14 05:59:46;;;;;;;5.60;3.63;;;18.20;99.90;;;;;;5050546;28;20041;-76
2023/06/14 06:02:12;;;;;;;8.73;3.75;;;18.30;99.90;;;;;;5048904;28;20033;-75
2023/06/14 06:04:38;;;;;;;9.27;4.05;;;18.40;99.90;;;;;;5046689;28;20048;-76
2023/06/14 06:07:03;;;;;;;7.45;3.72;;;18.40;99.90;;;;;;5049798;28;20044;-75
2023/06/14 06:09:29;;;;;;;6.72;3.63;;;18.40;99.90;;;;;;5051909;28;20451;-76
2023/06/14 06:11:55;;;;;;;7.68;3.72;;;18.40;99.90;;;;;;5046188;28;20026;-76
2023/06/14 06:14:21;;;;;;;5.88;3.55;;;18.40;99.90;;;;;;5040613;28;20047;-75
2023/06/14 06:16:47;;;;;;;6.57;4.40;;;18.50;99.90;;;;;;5039811;28;20094;-76
2023/06/14 06:19:12;;;;;;;7.75;4.38;;;18.50;99.90;;;;;;5047741;28;20818;-75
2023/06/14 06:21:38;;;;;;;5.93;3.92;;;18.60;99.90;;;;;;5047857;28;20033;-75
2023/06/14 06:24:05;;;;;;;7.45;3.80;;;18.60;99.90;;;;;;5048658;28;20094;-75
2023/06/14 06:26:32;;;;;;;7.15;4.38;;;18.80;99.90;;;;;;5048249;28;20060;-76
2023/06/14 06:28:58;;;;;;;5.63;3.42;;;18.80;99.90;;;;;;5050075;28;20031;-75
2023/06/14 06:31:24;;;;;;;5.43;3.85;;;18.80;99.90;;;;;;5048422;28;20029;-75
2023/06/14 06:33:50;;;;;;;6.85;3.13;;;19.00;99.90;;;;;;5048476;28;20122;-76
2023/06/14 06:36:16;;;;;;;13.18;4.43;;;19.00;99.90;;;;;;5045390;28;20028;-76
2023/06/14 06:38:42;;;;;;;6.95;3.55;;;19.10;99.90;;;;;;5042431;28;20137;-76
2023/06/14 06:41:07;;;;;;;6.15;3.80;;;18.80;99.90;;;;;;5043886;28;20107;-75
2023/06/14 06:43:33;;;;;;;5.68;3.53;;;19.00;99.90;;;;;;5050318;28;20032;-76
2023/06/14 06:45:58;;;;;;;6.18;3.65;;;18.90;99.90;;;;;;5053436;28;20028;-75
2023/06/14 06:48:24;;;;;;;7.15;3.70;;;19.00;99.90;;;;;;5059010;28;20107;-78
2023/06/14 06:50:51;;;;;;;6.38;3.75;;;19.10;99.90;;;;;;5054763;28;20032;-75
2023/06/14 06:53:18;;;;;;;6.30;3.88;;;19.30;99.90;;;;;;5056200;28;20025;-77
2023/06/14 06:55:44;;;;;;;6.75;4.20;;;19.50;99.90;;;;;;5056095;28;20110;-76
2023/06/14 06:58:10;;;;;;;7.60;4.28;;;19.60;99.90;;;;;;5061880;28;20037;-76
2023/06/14 07:00:35;;;;;;;6.60;3.50;;;19.80;99.90;;;;;;5061620;28;20041;-76
2023/06/14 07:03:03;;;;;;;6.80;3.85;;;19.80;99.90;;;;;;5061437;28;20023;-76
2023/06/14 07:05:29;;;;;;;7.22;3.92;;;19.60;99.90;;;;;;5059054;28;20546;-76
2023/06/14 07:07:55;;;;;;;5.53;3.67;;;19.50;99.90;;;;;;5059868;28;20024;-76
2023/06/14 07:10:21;;;;;;;6.38;4.00;;;19.80;99.90;;;;;;5052592;28;20055;-76
2023/06/14 07:12:46;;;;;;;8.55;3.58;;;19.80;99.90;;;;;;5060440;28;20031;-76
2023/06/14 07:15:12;;;;;;;6.32;3.67;;;19.80;99.90;;;;;;5060084;28;20020;-75
2023/06/14 07:17:37;;;;;;;5.47;4.03;;;19.90;99.90;;;;;;5062470;28;20312;-76
2023/06/14 07:20:24;;;;;;;6.10;3.80;;;20.10;99.90;;;;;;5064650;28;20020;-76
2023/06/14 07:22:50;;;;;;;5.13;2.85;;;20.00;99.90;;;;;;5061424;28;20024;-76
2023/06/14 07:25:15;;;;;;;6.45;2.70;;;20.20;99.90;;;;;;5062288;28;20173;-76
2023/06/14 07:27:42;;;;;;;7.43;3.85;;;20.40;99.90;;;;;;5065405;28;20039;-77
2023/06/14 07:30:09;;;;;;;5.22;3.30;;;20.50;99.90;;;;;;5052803;28;20036;-76
2023/06/14 07:32:35;;;;;;;6.03;3.38;;;20.60;99.90;;;;;;5056459;28;20021;-76
2023/06/14 07:35:01;;;;;;;5.10;3.10;;;20.60;99.90;;;;;;5066674;28;20707;-76
2023/06/14 07:37:27;;;;;;;5.93;3.47;;;20.50;99.90;;;;;;5058836;28;20056;-76
2023/06/14 07:39:52;;;;;;;6.47;3.00;;;20.60;99.90;;;;;;5057432;28;20139;-76
2023/06/14 07:42:18;;;;;;;5.40;3.17;;;20.70;99.90;;;;;;5051126;28;20029;-76
2023/06/14 07:44:43;;;;;;;6.35;3.88;;;20.80;99.90;;;;;;5047945;28;20902;-76
2023/06/14 07:47:09;;;;;;;5.50;3.03;;;21.10;99.90;;;;;;5048335;28;20029;-76
2023/06/14 07:49:35;;;;;;;5.47;3.00;;;21.30;99.90;;;;;;5053646;28;20091;-76
2023/06/14 07:52:01;;;;;;;6.07;3.45;;;21.30;99.90;;;;;;5045311;28;20025;-76
2023/06/14 07:54:27;;;;;;;6.97;3.03;;;21.30;99.90;;;;;;5050429;28;20115;-76
2023/06/14 07:56:53;;;;;;;8.55;2.60;;;21.00;99.90;;;;;;5045060;28;20131;-76
2023/06/14 07:59:18;;;;;;;7.80;3.40;;;21.00;99.90;;;;;;5047721;28;20049;-76
2023/06/14 08:01:46;;;;;;;3.90;2.42;;;21.00;99.90;;;;;;5057686;28;20633;-76
2023/06/14 08:04:13;;;;;;;6.22;2.70;;;21.10;99.90;;;;;;5050822;28;20035;-76
2023/06/14 08:06:39;;;;;;;8.80;3.33;;;21.30;99.90;;;;;;5046769;28;20112;-76
2023/06/14 08:09:05;;;;;;;4.40;2.70;;;21.20;99.90;;;;;;5055470;28;20060;-76
2023/06/14 08:11:31;;;;;;;6.88;3.05;;;21.10;99.90;;;;;;5050891;28;20036;-76
2023/06/14 08:13:57;;;;;;;9.90;2.88;;;21.00;99.90;;;;;;5040678;28;20036;-76
2023/06/14 08:16:22;;;;;;;5.35;3.63;;;21.00;99.90;;;;;;5049050;28;20025;-78
2023/06/14 08:18:48;;;;;;;6.78;2.90;;;21.00;99.90;;;;;;5049345;28;20131;-77
2023/06/14 08:21:17;;;;;;;7.03;2.83;;;20.90;99.90;;;;;;5045637;28;20040;-78
2023/06/14 08:23:43;;;;;;;6.60;3.15;;;21.20;99.90;;;;;;5039856;28;20032;-77
2023/06/14 08:26:09;;;;;;;4.35;2.75;;;21.40;99.90;;;;;;5048274;28;20515;-78
2023/06/14 08:28:35;;;;;;;4.88;2.85;;;21.40;99.90;;;;;;5049313;28;20032;-77
2023/06/14 08:31:01;;;;;;;7.10;2.78;;;21.10;99.90;;;;;;5045504;28;20036;-77
2023/06/14 08:33:27;;;;;;;6.68;2.80;;;21.40;99.90;;;;;;5046635;28;20048;-78
2023/06/14 08:35:53;;;;;;;5.45;2.60;;;21.80;99.90;;;;;;5043266;28;20526;-78
2023/06/14 08:38:18;;;;;;;6.75;2.85;;;22.20;99.90;;;;;;5040520;28;20029;-78
2023/06/14 08:40:48;;;;;;;9.88;3.72;;;22.10;99.90;;;;;;5042394;28;20143;-77
2023/06/14 08:43:13;;;;;;;6.40;3.20;;;22.30;99.90;;;;;;5040431;28;20507;-78
2023/06/14 08:45:39;;;;;;;4.18;2.47;;;22.50;99.90;;;;;;5042464;28;20039;-78
2023/06/14 08:48:07;;;;;;;4.60;3.00;;;22.90;99.90;;;;;;5043707;28;20025;-77
2023/06/14 08:50:34;;;;;;;4.03;2.80;;;23.00;99.90;;;;;;5040245;28;20060;-77
2023/06/14 08:53:02;;;;;;;5.30;2.78;;;23.10;99.90;;;;;;5042772;28;20422;-77
2023/06/14 08:55:29;;;;;;;7.70;3.38;;;23.60;99.90;;;;;;5047762;28;20091;-77
2023/06/14 08:57:57;;;;;;;5.78;2.85;;;23.40;99.90;;;;;;5047865;28;20131;-78
2023/06/14 09:00:26;;;;;;;7.10;2.85;;;22.90;99.90;;;;;;5052575;28;20036;-78
2023/06/14 09:02:57;;;;;;;4.95;3.03;;;23.00;99.90;;;;;;5043223;28;20040;-77
2023/06/14 09:05:27;;;;;;;5.50;2.78;;;23.40;99.90;;;;;;5043589;28;20483;-78
2023/06/14 09:07:56;;;;;;;5.15;3.45;;;23.70;99.90;;;;;;5047727;28;20112;-78
2023/06/14 09:10:22;;;;;;;7.43;3.13;;;23.30;99.90;;;;;;5044248;28;20094;-77
2023/06/14 09:12:48;;;;;;;6.63;3.20;;;23.30;99.90;;;;;;5045016;28;20039;-78
2023/06/14 09:15:14;;;;;;;7.70;3.42;;;23.00;99.90;;;;;;5044297;28;20021;-78
2023/06/14 09:17:40;;;;;;;4.85;3.40;;;22.90;99.90;;;;;;5043693;28;20512;-78
2023/06/14 09:20:10;;;;;;;6.25;3.55;;;22.90;99.90;;;;;;5045213;28;20071;-78
2023/06/14 09:22:38;;;;;;;4.32;2.65;;;23.00;99.90;;;;;;5048518;28;20517;-78
2023/06/14 09:25:05;;;;;;;6.97;2.70;;;23.00;99.90;;;;;;5043224;28;20112;-78
2023/06/14 09:27:31;;;;;;;5.20;3.13;;;23.00;99.90;;;;;;5046434;28;20039;-78
2023/06/14 09:29:56;;;;;;;5.55;3.20;;;23.00;99.90;;;;;;5041147;28;20486;-77
2023/06/14 09:32:22;;;;;;;5.78;3.17;;;22.80;99.90;;;;;;5045398;28;20024;-78
2023/06/14 09:34:48;;;;;;;5.85;2.97;;;22.90;99.90;;;;;;5045552;28;20035;-78
2023/06/14 09:37:27;;;;;;;8.25;3.90;;;23.00;99.90;;;;;;5045154;28;20226;-77
2023/06/14 09:39:53;;;;;;;10.43;3.08;;;23.70;99.90;;;;;;5047411;28;20067;-78
2023/06/14 09:42:19;;;;;;;5.72;3.47;;;23.90;99.90;;;;;;5051975;28;20083;-78
2023/06/14 09:44:49;;;;;;;5.15;2.92;;;24.40;99.90;;;;;;5049852;28;20409;-78
2023/06/14 09:47:18;;;;;;;7.05;3.25;;;25.00;99.90;;;;;;5047245;28;20039;-79
2023/06/14 09:49:44;;;;;;;5.65;3.33;;;24.90;99.60;;;;;;5051461;28;20424;-78
2023/06/14 09:52:18;;;;;;;8.18;3.33;;;24.80;99.60;;;;;;5051211;28;20043;-79
2023/06/14 09:54:46;;;;;;;6.55;3.10;;;25.20;99.50;;;;;;5051888;28;20051;-79
2023/06/14 09:57:14;;;;;;;4.90;2.90;;;25.60;98.90;;;;;;5049989;28;20033;-80
2023/06/14 09:59:45;;;;;;;4.43;2.85;;;25.90;99.40;;;;;;5051365;28;20387;-78
2023/06/14 10:02:27;;;;;;;5.70;3.13;;;26.10;98.40;;;;;;5051000;28;20029;-79
2023/06/14 10:05:08;;;;;;;8.25;3.22;;;25.50;98.40;;;;;;5054426;28;20147;-78
2023/06/14 10:07:55;;;;;;;4.90;2.75;;;24.70;99.00;;;;;;5055135;28;20032;-78
2023/06/14 10:10:21;;;;;;;5.22;2.90;;;24.70;99.00;;;;;;5052008;28;20028;-78
2023/06/14 10:12:47;;;;;;;4.75;2.80;;;25.10;98.80;;;;;;5060520;28;20494;-78
2023/06/14 10:15:27;;;;;;;4.50;2.92;;;25.80;97.60;;;;;;5058519;28;20202;-78
2023/06/14 10:17:59;;;;;;;4.72;2.80;;;25.30;97.30;;;;;;5055503;28;20489;-78
2023/06/14 10:20:33;;;;;;;4.35;2.67;;;25.70;98.60;;;;;;5049082;28;20124;-79
2023/06/14 10:23:12;;;;;;;4.57;2.97;;;26.40;97.60;;;;;;5046867;28;20116;-78
2023/06/14 10:25:38;;;;;;;5.55;2.53;;;26.20;97.20;;;;;;5045472;28;20082;-79
2023/06/14 10:28:18;;;;;;;4.28;3.03;;;26.30;97.60;;;;;;5047811;28;20028;-79
2023/06/14 10:31:12;;;;;;;5.57;2.78;;;26.00;97.20;;;;;;5055533;28;20029;-78
2023/06/14 10:33:55;;;;;;;;;;;25.80;96.80;;;;;;5057889;28;20040;-79
2023/06/14 10:36:26;;;;;;;5.47;3.17;;;25.90;96.50;;;;;;5058855;28;19934;-79
2023/06/14 10:39:16;;;;;;;3.90;2.75;;;26.10;96.30;;;;;;5057462;28;20024;-79
2023/06/14 10:41:50;;;;;;;4.40;2.80;;;26.30;96.60;;;;;;5060710;28;20083;-79
2023/06/14 10:44:21;;;;;;;;;;;26.30;96.00;;;;;;5060301;28;20486;-79
2023/06/14 10:46:52;;;;;;;4.25;2.53;;;26.20;95.70;;;;;;5054915;28;25342;-79
2023/06/14 10:49:42;;;;;;;4.40;2.40;;;26.80;95.10;;;;;;5048534;28;20048;-78
2023/06/14 10:52:16;;;;;;;4.15;2.33;;;27.00;94.60;;;;;;5056229;28;20646;-79
2023/06/14 10:55:17;;;;;;;5.18;2.20;;;26.80;94.60;;;;;;5054178;28;20048;-79
2023/06/14 10:57:45;;;;;;;5.18;2.53;;;26.70;94.70;;;;;;5024127;28;20056;-79
2023/06/14 11:00:13;;;;;;;5.40;2.97;;;26.00;94.70;;;;;;5051923;28;20095;-80
2023/06/14 11:03:07;;;;;;;3.28;2.20;;;25.90;93.90;;;;;;5053681;28;20024;-79
2023/06/14 11:05:51;;;;;;;3.95;2.40;;;26.50;94.80;;;;;;5053282;28;20028;-79
2023/06/14 11:08:31;;;;;;;;;;;26.80;95.00;;;;;;5053801;28;20024;-79
2023/06/14 11:11:00;;;;;;;3.78;2.55;;;26.70;94.50;;;;;;5047612;28;19944;-79
2023/06/14 11:13:26;;;;;;;3.95;2.38;;;26.70;93.80;;;;;;5051976;28;20039;-79
2023/06/14 11:15:53;;;;;;;3.33;2.10;;;26.70;93.00;;;;;;5063375;28;20491;-79
2023/06/14 11:18:24;;;;;;;3.63;2.05;;;26.60;91.90;;;;;;5048282;28;20040;-79
2023/06/14 11:20:49;;;;;;;4.25;2.22;;;27.00;93.00;;;;;;5052237;28;20044;-79
2023/06/14 11:23:15;;;;;;;5.65;2.58;;;27.00;92.90;;;;;;5053806;28;20048;-79
2023/06/14 11:25:41;;;;;;;3.90;2.30;;;26.90;93.20;;;;;;5052172;28;20028;-79
2023/06/14 11:28:07;;;;;;;3.85;2.40;;;27.10;92.40;;;;;;5055461;28;20443;-80
2023/06/14 11:30:33;;;;;;;5.78;2.80;;;26.90;93.10;;;;;;5056668;28;20430;-79
2023/06/14 11:32:58;;;;;;;5.28;3.03;;;26.70;93.70;;;;;;5046964;28;20490;-79
2023/06/14 11:35:25;;;;;;;4.82;2.67;;;26.90;93.90;;;;;;5054396;28;20678;-81
2023/06/14 11:37:56;;;;;;;5.88;2.60;;;26.90;93.90;;;;;;5056621;28;20052;-77
2023/06/14 11:40:24;;;;;;;5.55;2.30;;;26.80;93.10;;;;;;5052876;28;20036;-81
2023/06/14 11:42:57;;;;;;;4.13;2.20;;;26.90;92.80;;;;;;5050094;28;20044;-77
2023/06/14 11:45:23;;;;;;;6.00;2.55;;;26.90;93.20;;;;;;5053317;28;20044;-76
2023/06/14 11:47:48;;;;;;;6.80;2.30;;;26.70;92.90;;;;;;5064353;28;20033;-77
2023/06/14 11:50:14;;;;;;;3.78;2.10;;;26.60;92.50;;;;;;5049069;28;20024;-77
2023/06/14 11:52:40;;;;;;;4.07;2.60;;;26.70;93.20;;;;;;5045698;28;20106;-77
2023/06/14 11:55:06;;;;;;;3.95;2.47;;;26.70;93.00;;;;;;5056137;28;20062;-78
2023/06/14 11:57:38;;;;;;;4.57;2.35;;;26.60;93.10;;;;;;5049594;28;20722;-77
2023/06/14 12:00:12;;;;;;;8.50;2.80;;;26.70;93.00;;;;;;5056074;28;20647;-77
2023/06/14 12:02:40;;;;;;;6.18;2.50;;;27.10;93.10;;;;;;5052989;28;20028;-77
2023/06/14 12:05:09;;;;;;;5.47;2.40;;;27.00;92.70;;;;;;5047718;28;20367;-77
2023/06/14 12:07:42;;;;;;;5.78;2.83;;;27.20;93.10;;;;;;5044871;28;20064;-77
2023/06/14 12:10:10;;;;;;;4.97;2.88;;;27.30;92.90;;;;;;5055372;28;20040;-78
2023/06/14 12:12:38;;;;;;;4.22;2.58;;;27.40;93.40;;;;;;5061167;28;20025;-77
2023/06/14 12:15:06;;;;;;;5.50;2.78;;;27.60;93.50;;;;;;5051242;28;20028;-77
2023/06/14 12:17:42;;;;;;;4.35;2.63;;;27.50;93.30;;;;;;5050865;28;20508;-77
2023/06/14 12:20:21;;;;;;;4.53;2.67;;;27.10;93.20;;;;;;5050157;28;20104;-77
2023/06/14 12:22:51;;;;;;;9.38;3.10;;;27.30;93.60;;;;;;5041834;28;20029;-78
2023/06/14 12:25:33;;;;;;;9.60;3.00;;;27.30;93.70;;;;;;5052063;28;20029;-77
2023/06/14 12:28:03;;;;;;;4.47;2.83;;;27.50;93.90;;;;;;5053570;28;20494;-77
2023/06/14 12:30:29;;;;;;;7.10;2.88;;;27.40;93.00;;;;;;5058381;28;20028;-78
2023/06/14 12:32:54;;;;;;;4.00;2.30;;;27.50;93.10;;;;;;5060072;28;20020;-78
2023/06/14 12:35:20;;;;;;;5.03;2.75;;;27.40;93.00;;;;;;5054569;28;20918;-77
2023/06/14 12:37:46;;;;;;;7.28;2.20;;;27.30;93.40;;;;;;5054874;28;20031;-77
2023/06/14 12:40:13;;;;;;;3.58;2.45;;;27.00;93.30;;;;;;5043095;28;20398;-78
2023/06/14 12:42:40;;;;;;;5.03;3.03;;;27.00;93.20;;;;;;5052865;28;20036;-78
2023/06/14 12:45:06;;;;;;;4.25;2.65;;;27.10;94.00;;;;;;5050433;28;20394;-78
2023/06/14 12:47:32;;;;;;;4.93;2.80;;;27.20;93.20;;;;;;5046061;28;20406;-78
2023/06/14 12:49:57;;;;;;;4.25;2.38;;;27.20;93.00;;;;;;5050608;28;20457;-78
2023/06/14 12:52:23;;;;;;;6.40;2.63;;;27.40;93.70;;;;;;5052976;28;20028;-78